sensor_id;sensor_type;location;lat;lon;timestamp;P1;durP1;ratioP1;P2;durP2;ratioP2
29380;SDS011;16364;52.490;13.326;2022-09-09T00:01:43;7.30;;;6.60;;
29380;SDS011;16364;52.490;13.326;2022-09-09T00:09:21;7.47;;;6.77;;
29380;SDS011;16364;52.490;13.326;2022-09-09T00:11:53;13.43;;;8.00;;
29380;SDS011;16364;52.490;13.326;2022-09-09T00:20:12;10.00;;;8.30;;
29380;SDS011;16364;52.490;13.326;2022-09-09T00:22:40;7.90;;;7.10;;
29380;SDS011;16364;52.490;13.326;2022-09-09T00:25:10;8.77;;;7.90;;
29380;SDS011;16364;52.490;13.326;2022-09-09T00:27:48;6.97;;;6.47;;
29380;SDS011;16364;52.490;13.326;2022-09-09T00:30:15;8.17;;;7.50;;
29380;SDS011;16364;52.490;13.326;2022-09-09T00:32:44;6.90;;;6.20;;
29380;SDS011;16364;52.490;13.326;2022-09-09T00:37:34;7.70;;;6.63;;
29380;SDS011;16364;52.490;13.326;2022-09-09T00:40:01;7.77;;;6.83;;
29380;SDS011;16364;52.490;13.326;2022-09-09T00:42:35;8.23;;;7.43;;
29380;SDS011;16364;52.490;13.326;2022-09-09T00:47:52;9.63;;;7.03;;
29380;SDS011;16364;52.490;13.326;2022-09-09T00:50:33;6.93;;;6.33;;
29380;SDS011;16364;52.490;13.326;2022-09-09T00:53:19;7.17;;;6.57;;
29380;SDS011;16364;52.490;13.326;2022-09-09T00:56:00;7.20;;;6.60;;
29380;SDS011;16364;52.490;13.326;2022-09-09T00:58:27;7.50;;;6.80;;
29380;SDS011;16364;52.490;13.326;2022-09-09T01:01:13;7.17;;;6.57;;
29380;SDS011;16364;52.490;13.326;2022-09-09T01:03:49;6.60;;;6.00;;
29380;SDS011;16364;52.490;13.326;2022-09-09T01:08:51;7.07;;;6.37;;
29380;SDS011;16364;52.490;13.326;2022-09-09T01:11:21;6.50;;;5.90;;
29380;SDS011;16364;52.490;13.326;2022-09-09T01:13:47;7.33;;;6.53;;
29380;SDS011;16364;52.490;13.326;2022-09-09T01:16:14;6.70;;;6.10;;
29380;SDS011;16364;52.490;13.326;2022-09-09T01:18:41;6.80;;;6.20;;
29380;SDS011;16364;52.490;13.326;2022-09-09T01:23:49;7.77;;;6.90;;
29380;SDS011;16364;52.490;13.326;2022-09-09T01:28:49;7.77;;;7.07;;
29380;SDS011;16364;52.490;13.326;2022-09-09T01:34:18;8.73;;;7.47;;
29380;SDS011;16364;52.490;13.326;2022-09-09T01:36:45;7.77;;;6.97;;
29380;SDS011;16364;52.490;13.326;2022-09-09T01:39:11;9.53;;;8.70;;
29380;SDS011;16364;52.490;13.326;2022-09-09T01:41:37;8.60;;;7.80;;
29380;SDS011;16364;52.490;13.326;2022-09-09T01:44:02;9.30;;;7.97;;
29380;SDS011;16364;52.490;13.326;2022-09-09T01:46:27;8.37;;;7.67;;
29380;SDS011;16364;52.490;13.326;2022-09-09T01:48:55;7.17;;;6.47;;
29380;SDS011;16364;52.490;13.326;2022-09-09T01:51:21;7.43;;;6.73;;
29380;SDS011;16364;52.490;13.326;2022-09-09T01:53:46;7.43;;;6.73;;
29380;SDS011;16364;52.490;13.326;2022-09-09T02:01:15;8.10;;;7.40;;
29380;SDS011;16364;52.490;13.326;2022-09-09T02:03:44;7.53;;;6.70;;
29380;SDS011;16364;52.490;13.326;2022-09-09T02:06:20;9.77;;;7.90;;
29380;SDS011;16364;52.490;13.326;2022-09-09T02:08:50;7.37;;;6.67;;
29380;SDS011;16364;52.490;13.326;2022-09-09T02:11:18;8.17;;;7.47;;
29380;SDS011;16364;52.490;13.326;2022-09-09T02:13:44;8.50;;;7.60;;
29380;SDS011;16364;52.490;13.326;2022-09-09T02:19:00;10.33;;;7.60;;
29380;SDS011;16364;52.490;13.326;2022-09-09T02:21:26;9.13;;;7.30;;
29380;SDS011;16364;52.490;13.326;2022-09-09T02:23:53;9.70;;;7.97;;
29380;SDS011;16364;52.490;13.326;2022-09-09T02:26:21;9.20;;;8.30;;
29380;SDS011;16364;52.490;13.326;2022-09-09T02:28:48;9.20;;;8.00;;
29380;SDS011;16364;52.490;13.326;2022-09-09T02:31:15;9.87;;;7.63;;
29380;SDS011;16364;52.490;13.326;2022-09-09T02:33:43;8.20;;;7.40;;
29380;SDS011;16364;52.490;13.326;2022-09-09T02:36:09;11.43;;;8.97;;
29380;SDS011;16364;52.490;13.326;2022-09-09T02:38:37;10.63;;;9.07;;
29380;SDS011;16364;52.490;13.326;2022-09-09T02:41:04;8.77;;;7.20;;
29380;SDS011;16364;52.490;13.326;2022-09-09T02:43:32;7.93;;;7.23;;
29380;SDS011;16364;52.490;13.326;2022-09-09T02:46:01;9.63;;;8.53;;
29380;SDS011;16364;52.490;13.326;2022-09-09T02:48:34;10.43;;;8.37;;
29380;SDS011;16364;52.490;13.326;2022-09-09T02:53:32;11.03;;;8.60;;
29380;SDS011;16364;52.490;13.326;2022-09-09T02:56:05;8.67;;;6.70;;
29380;SDS011;16364;52.490;13.326;2022-09-09T02:58:34;6.70;;;6.17;;
29380;SDS011;16364;52.490;13.326;2022-09-09T03:00:59;6.83;;;6.23;;
29380;SDS011;16364;52.490;13.326;2022-09-09T03:03:27;8.57;;;7.70;;
29380;SDS011;16364;52.490;13.326;2022-09-09T03:05:52;8.60;;;7.20;;
29380;SDS011;16364;52.490;13.326;2022-09-09T03:08:18;10.97;;;7.87;;
29380;SDS011;16364;52.490;13.326;2022-09-09T03:10:43;11.20;;;9.37;;
29380;SDS011;16364;52.490;13.326;2022-09-09T03:13:08;9.83;;;7.90;;
29380;SDS011;16364;52.490;13.326;2022-09-09T03:15:34;9.83;;;7.43;;
29380;SDS011;16364;52.490;13.326;2022-09-09T03:17:59;9.07;;;6.30;;
29380;SDS011;16364;52.490;13.326;2022-09-09T03:20:25;7.97;;;6.47;;
29380;SDS011;16364;52.490;13.326;2022-09-09T03:22:51;7.77;;;7.03;;
29380;SDS011;16364;52.490;13.326;2022-09-09T03:25:17;8.00;;;7.30;;
29380;SDS011;16364;52.490;13.326;2022-09-09T03:27:43;9.20;;;7.77;;
29380;SDS011;16364;52.490;13.326;2022-09-09T03:30:08;8.87;;;7.60;;
29380;SDS011;16364;52.490;13.326;2022-09-09T03:32:33;8.87;;;7.10;;
29380;SDS011;16364;52.490;13.326;2022-09-09T03:34:58;8.03;;;7.33;;
29380;SDS011;16364;52.490;13.326;2022-09-09T03:37:24;8.00;;;7.17;;
29380;SDS011;16364;52.490;13.326;2022-09-09T03:39:49;9.47;;;6.67;;
29380;SDS011;16364;52.490;13.326;2022-09-09T03:42:14;10.50;;;7.73;;
29380;SDS011;16364;52.490;13.326;2022-09-09T03:44:43;7.00;;;6.00;;
29380;SDS011;16364;52.490;13.326;2022-09-09T03:47:09;8.33;;;7.50;;
29380;SDS011;16364;52.490;13.326;2022-09-09T03:49:34;9.50;;;8.00;;
29380;SDS011;16364;52.490;13.326;2022-09-09T03:51:59;7.67;;;6.97;;
29380;SDS011;16364;52.490;13.326;2022-09-09T03:54:26;8.93;;;5.70;;
29380;SDS011;16364;52.490;13.326;2022-09-09T03:56:51;7.70;;;7.00;;
29380;SDS011;16364;52.490;13.326;2022-09-09T03:59:16;10.67;;;7.53;;
29380;SDS011;16364;52.490;13.326;2022-09-09T04:01:41;9.70;;;6.20;;
29380;SDS011;16364;52.490;13.326;2022-09-09T04:04:07;7.97;;;7.27;;
29380;SDS011;16364;52.490;13.326;2022-09-09T04:06:33;7.93;;;6.23;;
29380;SDS011;16364;52.490;13.326;2022-09-09T04:08:59;7.47;;;6.60;;
29380;SDS011;16364;52.490;13.326;2022-09-09T04:11:24;7.13;;;6.60;;
29380;SDS011;16364;52.490;13.326;2022-09-09T04:13:49;6.77;;;6.17;;
29380;SDS011;16364;52.490;13.326;2022-09-09T04:16:15;7.40;;;6.70;;
29380;SDS011;16364;52.490;13.326;2022-09-09T04:18:40;7.07;;;6.47;;
29380;SDS011;16364;52.490;13.326;2022-09-09T04:21:05;9.57;;;7.60;;
29380;SDS011;16364;52.490;13.326;2022-09-09T04:23:32;6.80;;;6.20;;
29380;SDS011;16364;52.490;13.326;2022-09-09T04:25:59;8.40;;;6.10;;
29380;SDS011;16364;52.490;13.326;2022-09-09T04:28:25;8.33;;;7.20;;
29380;SDS011;16364;52.490;13.326;2022-09-09T04:30:51;9.07;;;7.03;;
29380;SDS011;16364;52.490;13.326;2022-09-09T04:33:17;9.13;;;7.00;;
29380;SDS011;16364;52.490;13.326;2022-09-09T04:35:46;9.40;;;7.40;;
29380;SDS011;16364;52.490;13.326;2022-09-09T04:38:12;8.00;;;7.20;;
29380;SDS011;16364;52.490;13.326;2022-09-09T04:40:37;8.13;;;6.20;;
29380;SDS011;16364;52.490;13.326;2022-09-09T04:43:05;7.60;;;6.90;;
29380;SDS011;16364;52.490;13.326;2022-09-09T04:45:30;7.57;;;6.87;;
29380;SDS011;16364;52.490;13.326;2022-09-09T04:47:55;10.47;;;6.30;;
29380;SDS011;16364;52.490;13.326;2022-09-09T04:50:21;6.47;;;5.77;;
29380;SDS011;16364;52.490;13.326;2022-09-09T04:52:46;7.90;;;6.57;;
29380;SDS011;16364;52.490;13.326;2022-09-09T04:55:11;8.57;;;6.97;;
29380;SDS011;16364;52.490;13.326;2022-09-09T04:57:37;7.77;;;5.40;;
29380;SDS011;16364;52.490;13.326;2022-09-09T05:00:03;7.40;;;6.00;;
29380;SDS011;16364;52.490;13.326;2022-09-09T05:02:28;7.53;;;6.83;;
29380;SDS011;16364;52.490;13.326;2022-09-09T05:04:55;6.47;;;5.50;;
29380;SDS011;16364;52.490;13.326;2022-09-09T05:07:21;8.67;;;6.47;;
29380;SDS011;16364;52.490;13.326;2022-09-09T05:09:46;6.00;;;5.40;;
29380;SDS011;16364;52.490;13.326;2022-09-09T05:12:13;7.13;;;6.43;;
29380;SDS011;16364;52.490;13.326;2022-09-09T05:14:38;5.57;;;5.07;;
29380;SDS011;16364;52.490;13.326;2022-09-09T05:17:03;6.27;;;4.93;;
29380;SDS011;16364;52.490;13.326;2022-09-09T05:19:28;6.23;;;5.63;;
29380;SDS011;16364;52.490;13.326;2022-09-09T05:21:56;6.73;;;6.03;;
29380;SDS011;16364;52.490;13.326;2022-09-09T05:24:21;4.80;;;4.40;;
29380;SDS011;16364;52.490;13.326;2022-09-09T05:26:48;5.33;;;4.90;;
29380;SDS011;16364;52.490;13.326;2022-09-09T05:29:13;5.63;;;5.23;;
29380;SDS011;16364;52.490;13.326;2022-09-09T05:31:38;5.40;;;5.00;;
29380;SDS011;16364;52.490;13.326;2022-09-09T05:34:04;5.90;;;5.40;;
29380;SDS011;16364;52.490;13.326;2022-09-09T05:36:29;6.03;;;4.67;;
29380;SDS011;16364;52.490;13.326;2022-09-09T05:38:54;5.20;;;4.80;;
29380;SDS011;16364;52.490;13.326;2022-09-09T05:41:20;5.73;;;4.60;;
29380;SDS011;16364;52.490;13.326;2022-09-09T05:43:45;4.60;;;4.20;;
29380;SDS011;16364;52.490;13.326;2022-09-09T05:46:13;6.23;;;5.57;;
29380;SDS011;16364;52.490;13.326;2022-09-09T05:48:39;7.00;;;5.47;;
29380;SDS011;16364;52.490;13.326;2022-09-09T05:51:06;4.83;;;3.60;;
29380;SDS011;16364;52.490;13.326;2022-09-09T05:53:34;4.40;;;4.00;;
29380;SDS011;16364;52.490;13.326;2022-09-09T05:56:03;4.63;;;4.30;;
29380;SDS011;16364;52.490;13.326;2022-09-09T05:58:29;4.90;;;4.50;;
29380;SDS011;16364;52.490;13.326;2022-09-09T06:01:08;4.53;;;3.80;;
29380;SDS011;16364;52.490;13.326;2022-09-09T06:03:34;4.80;;;4.40;;
29380;SDS011;16364;52.490;13.326;2022-09-09T06:06:00;3.40;;;3.10;;
29380;SDS011;16364;52.490;13.326;2022-09-09T06:08:25;4.67;;;4.27;;
29380;SDS011;16364;52.490;13.326;2022-09-09T06:10:51;5.03;;;4.60;;
29380;SDS011;16364;52.490;13.326;2022-09-09T06:13:17;6.07;;;5.47;;
29380;SDS011;16364;52.490;13.326;2022-09-09T06:15:49;5.10;;;4.60;;
29380;SDS011;16364;52.490;13.326;2022-09-09T06:18:14;6.13;;;5.30;;
29380;SDS011;16364;52.490;13.326;2022-09-09T06:20:42;3.70;;;3.40;;
29380;SDS011;16364;52.490;13.326;2022-09-09T06:23:08;5.80;;;5.20;;
29380;SDS011;16364;52.490;13.326;2022-09-09T06:25:33;4.10;;;3.53;;
29380;SDS011;16364;52.490;13.326;2022-09-09T06:27:59;3.67;;;3.47;;
29380;SDS011;16364;52.490;13.326;2022-09-09T06:30:24;3.67;;;3.37;;
29380;SDS011;16364;52.490;13.326;2022-09-09T06:32:49;6.13;;;3.47;;
29380;SDS011;16364;52.490;13.326;2022-09-09T06:35:15;3.10;;;2.90;;
29380;SDS011;16364;52.490;13.326;2022-09-09T06:37:44;4.22;;;3.92;;
29380;SDS011;16364;52.490;13.326;2022-09-09T06:40:09;3.77;;;3.47;;
29380;SDS011;16364;52.490;13.326;2022-09-09T06:42:34;4.23;;;3.83;;
29380;SDS011;16364;52.490;13.326;2022-09-09T06:45:00;4.87;;;3.20;;
29380;SDS011;16364;52.490;13.326;2022-09-09T06:47:25;3.83;;;3.47;;
29380;SDS011;16364;52.490;13.326;2022-09-09T06:49:52;4.60;;;3.70;;
29380;SDS011;16364;52.490;13.326;2022-09-09T06:52:17;4.20;;;3.00;;
29380;SDS011;16364;52.490;13.326;2022-09-09T06:54:43;8.63;;;3.77;;
29380;SDS011;16364;52.490;13.326;2022-09-09T06:57:09;4.00;;;3.63;;
29380;SDS011;16364;52.490;13.326;2022-09-09T06:59:34;4.90;;;3.50;;
29380;SDS011;16364;52.490;13.326;2022-09-09T07:01:59;7.93;;;4.60;;
29380;SDS011;16364;52.490;13.326;2022-09-09T07:04:24;11.23;;;3.07;;
29380;SDS011;16364;52.490;13.326;2022-09-09T07:06:50;2.43;;;2.23;;
29380;SDS011;16364;52.490;13.326;2022-09-09T07:09:17;4.70;;;4.03;;
29380;SDS011;16364;52.490;13.326;2022-09-09T07:11:45;5.53;;;3.90;;
29380;SDS011;16364;52.490;13.326;2022-09-09T07:14:11;3.30;;;3.07;;
29380;SDS011;16364;52.490;13.326;2022-09-09T07:16:38;6.23;;;3.13;;
29380;SDS011;16364;52.490;13.326;2022-09-09T07:19:04;3.60;;;2.40;;
29380;SDS011;16364;52.490;13.326;2022-09-09T07:21:30;3.83;;;2.27;;
29380;SDS011;16364;52.490;13.326;2022-09-09T07:23:55;2.33;;;2.13;;
29380;SDS011;16364;52.490;13.326;2022-09-09T07:26:22;3.00;;;2.80;;
29380;SDS011;16364;52.490;13.326;2022-09-09T07:28:48;2.90;;;2.07;;
29380;SDS011;16364;52.490;13.326;2022-09-09T07:31:17;2.10;;;1.90;;
29380;SDS011;16364;52.490;13.326;2022-09-09T07:33:42;2.67;;;2.10;;
29380;SDS011;16364;52.490;13.326;2022-09-09T07:36:09;4.40;;;1.77;;
29380;SDS011;16364;52.490;13.326;2022-09-09T07:38:38;4.43;;;2.17;;
29380;SDS011;16364;52.490;13.326;2022-09-09T07:41:05;3.97;;;2.50;;
29380;SDS011;16364;52.490;13.326;2022-09-09T07:43:31;4.70;;;1.80;;
29380;SDS011;16364;52.490;13.326;2022-09-09T07:45:59;3.63;;;1.87;;
29380;SDS011;16364;52.490;13.326;2022-09-09T07:48:26;2.60;;;1.70;;
29380;SDS011;16364;52.490;13.326;2022-09-09T07:50:51;2.13;;;1.90;;
29380;SDS011;16364;52.490;13.326;2022-09-09T07:53:16;3.33;;;1.70;;
29380;SDS011;16364;52.490;13.326;2022-09-09T07:55:41;1.70;;;1.53;;
29380;SDS011;16364;52.490;13.326;2022-09-09T07:58:07;3.53;;;1.73;;
29380;SDS011;16364;52.490;13.326;2022-09-09T08:00:32;2.70;;;1.40;;
29380;SDS011;16364;52.490;13.326;2022-09-09T08:02:58;1.93;;;1.83;;
29380;SDS011;16364;52.490;13.326;2022-09-09T08:05:26;2.67;;;2.00;;
29380;SDS011;16364;52.490;13.326;2022-09-09T08:07:52;2.20;;;1.50;;
29380;SDS011;16364;52.490;13.326;2022-09-09T08:10:17;7.43;;;1.80;;
29380;SDS011;16364;52.490;13.326;2022-09-09T08:12:43;1.60;;;1.50;;
29380;SDS011;16364;52.490;13.326;2022-09-09T08:15:08;2.80;;;1.87;;
29380;SDS011;16364;52.490;13.326;2022-09-09T08:17:33;4.50;;;2.10;;
29380;SDS011;16364;52.490;13.326;2022-09-09T08:19:58;3.17;;;2.00;;
29380;SDS011;16364;52.490;13.326;2022-09-09T08:22:28;5.63;;;1.60;;
29380;SDS011;16364;52.490;13.326;2022-09-09T08:24:53;1.93;;;1.53;;
29380;SDS011;16364;52.490;13.326;2022-09-09T08:27:18;2.40;;;1.40;;
29380;SDS011;16364;52.490;13.326;2022-09-09T08:29:43;3.70;;;1.90;;
29380;SDS011;16364;52.490;13.326;2022-09-09T08:32:09;4.27;;;1.50;;
29380;SDS011;16364;52.490;13.326;2022-09-09T08:34:34;4.03;;;1.80;;
29380;SDS011;16364;52.490;13.326;2022-09-09T08:37:00;3.23;;;1.47;;
29380;SDS011;16364;52.490;13.326;2022-09-09T08:39:25;2.07;;;1.50;;
29380;SDS011;16364;52.490;13.326;2022-09-09T08:52:14;5.23;;;1.63;;
29380;SDS011;16364;52.490;13.326;2022-09-09T08:54:41;3.57;;;1.60;;
29380;SDS011;16364;52.490;13.326;2022-09-09T08:57:07;2.40;;;1.70;;
29380;SDS011;16364;52.490;13.326;2022-09-09T08:59:35;1.97;;;1.80;;
29380;SDS011;16364;52.490;13.326;2022-09-09T09:02:08;1.70;;;1.60;;
29380;SDS011;16364;52.490;13.326;2022-09-09T09:07:15;2.63;;;2.43;;
29380;SDS011;16364;52.490;13.326;2022-09-09T09:12:28;4.33;;;3.07;;
29380;SDS011;16364;52.490;13.326;2022-09-09T09:14:54;3.60;;;1.60;;
29380;SDS011;16364;52.490;13.326;2022-09-09T09:17:24;2.87;;;1.70;;
29380;SDS011;16364;52.490;13.326;2022-09-09T09:19:51;1.70;;;1.60;;
29380;SDS011;16364;52.490;13.326;2022-09-09T09:22:20;3.17;;;1.20;;
29380;SDS011;16364;52.490;13.326;2022-09-09T09:27:21;3.40;;;1.30;;
29380;SDS011;16364;52.490;13.326;2022-09-09T09:29:46;2.80;;;1.23;;
29380;SDS011;16364;52.490;13.326;2022-09-09T09:32:15;3.77;;;1.40;;
29380;SDS011;16364;52.490;13.326;2022-09-09T09:34:41;1.43;;;1.30;;
29380;SDS011;16364;52.490;13.326;2022-09-09T09:37:16;5.80;;;1.60;;
29380;SDS011;16364;52.490;13.326;2022-09-09T09:39:44;2.10;;;1.20;;
29380;SDS011;16364;52.490;13.326;2022-09-09T09:42:10;2.20;;;1.20;;
29380;SDS011;16364;52.490;13.326;2022-09-09T09:44:38;3.10;;;1.40;;
29380;SDS011;16364;52.490;13.326;2022-09-09T09:47:17;3.10;;;1.30;;
29380;SDS011;16364;52.490;13.326;2022-09-09T09:49:59;3.03;;;1.63;;
29380;SDS011;16364;52.490;13.326;2022-09-09T09:52:25;3.23;;;1.37;;
29380;SDS011;16364;52.490;13.326;2022-09-09T09:54:51;1.97;;;1.20;;
29380;SDS011;16364;52.490;13.326;2022-09-09T09:57:17;4.20;;;1.30;;
29380;SDS011;16364;52.490;13.326;2022-09-09T09:59:43;1.33;;;1.10;;
29380;SDS011;16364;52.490;13.326;2022-09-09T10:02:22;1.90;;;1.30;;
29380;SDS011;16364;52.490;13.326;2022-09-09T10:07:36;5.10;;;1.30;;
29380;SDS011;16364;52.490;13.326;2022-09-09T10:10:02;1.63;;;1.30;;
29380;SDS011;16364;52.490;13.326;2022-09-09T10:12:34;1.20;;;1.00;;
29380;SDS011;16364;52.490;13.326;2022-09-09T10:20:29;1.90;;;1.37;;
29380;SDS011;16364;52.490;13.326;2022-09-09T10:33:51;1.50;;;1.10;;
29380;SDS011;16364;52.490;13.326;2022-09-09T10:36:18;2.50;;;1.20;;
29380;SDS011;16364;52.490;13.326;2022-09-09T10:38:45;2.43;;;1.57;;
29380;SDS011;16364;52.490;13.326;2022-09-09T10:41:18;2.53;;;1.20;;
29380;SDS011;16364;52.490;13.326;2022-09-09T10:46:20;1.93;;;1.40;;
29380;SDS011;16364;52.490;13.326;2022-09-09T10:51:46;2.57;;;1.30;;
29380;SDS011;16364;52.490;13.326;2022-09-09T10:54:27;2.10;;;1.37;;
29380;SDS011;16364;52.490;13.326;2022-09-09T10:56:55;5.60;;;2.83;;
29380;SDS011;16364;52.490;13.326;2022-09-09T10:59:24;2.27;;;1.70;;
29380;SDS011;16364;52.490;13.326;2022-09-09T11:01:59;3.80;;;1.87;;
29380;SDS011;16364;52.490;13.326;2022-09-09T11:04:39;1.73;;;1.23;;
29380;SDS011;16364;52.490;13.326;2022-09-09T11:07:08;4.37;;;1.70;;
29380;SDS011;16364;52.490;13.326;2022-09-09T11:09:37;3.47;;;1.30;;
29380;SDS011;16364;52.490;13.326;2022-09-09T11:12:04;1.80;;;1.30;;
29380;SDS011;16364;52.490;13.326;2022-09-09T11:17:03;4.57;;;1.20;;
29380;SDS011;16364;52.490;13.326;2022-09-09T11:21:55;3.10;;;1.15;;
29380;SDS011;16364;52.490;13.326;2022-09-09T11:24:25;1.47;;;0.80;;
29380;SDS011;16364;52.490;13.326;2022-09-09T11:27:00;1.33;;;0.90;;
29380;SDS011;16364;52.490;13.326;2022-09-09T11:34:46;2.37;;;1.10;;
29380;SDS011;16364;52.490;13.326;2022-09-09T11:39:47;2.03;;;1.00;;
29380;SDS011;16364;52.490;13.326;2022-09-09T11:42:20;1.57;;;0.90;;
29380;SDS011;16364;52.490;13.326;2022-09-09T11:44:45;1.67;;;0.83;;
29380;SDS011;16364;52.490;13.326;2022-09-09T11:47:27;2.60;;;1.00;;
29380;SDS011;16364;52.490;13.326;2022-09-09T11:50:08;0.80;;;0.80;;
29380;SDS011;16364;52.490;13.326;2022-09-09T11:52:37;1.20;;;0.90;;
29380;SDS011;16364;52.490;13.326;2022-09-09T11:55:11;4.50;;;1.53;;
29380;SDS011;16364;52.490;13.326;2022-09-09T11:57:37;4.17;;;0.90;;
29380;SDS011;16364;52.490;13.326;2022-09-09T12:00:03;1.47;;;0.83;;
29380;SDS011;16364;52.490;13.326;2022-09-09T12:02:29;2.50;;;0.90;;
29380;SDS011;16364;52.490;13.326;2022-09-09T12:05:02;2.00;;;1.00;;
29380;SDS011;16364;52.490;13.326;2022-09-09T12:07:40;2.00;;;1.30;;
29380;SDS011;16364;52.490;13.326;2022-09-09T12:12:37;4.80;;;1.03;;
29380;SDS011;16364;52.490;13.326;2022-09-09T12:17:29;2.20;;;0.80;;
29380;SDS011;16364;52.490;13.326;2022-09-09T12:20:02;1.00;;;0.90;;
29380;SDS011;16364;52.490;13.326;2022-09-09T12:22:35;4.20;;;0.90;;
29380;SDS011;16364;52.490;13.326;2022-09-09T12:25:14;2.20;;;0.93;;
29380;SDS011;16364;52.490;13.326;2022-09-09T12:27:58;2.50;;;1.00;;
29380;SDS011;16364;52.490;13.326;2022-09-09T12:30:31;2.20;;;0.90;;
29380;SDS011;16364;52.490;13.326;2022-09-09T12:33:13;1.73;;;0.90;;
29380;SDS011;16364;52.490;13.326;2022-09-09T12:35:41;1.93;;;1.07;;
29380;SDS011;16364;52.490;13.326;2022-09-09T12:38:07;1.83;;;0.90;;
29380;SDS011;16364;52.490;13.326;2022-09-09T12:40:36;2.60;;;1.00;;
29380;SDS011;16364;52.490;13.326;2022-09-09T12:43:02;1.50;;;0.90;;
29380;SDS011;16364;52.490;13.326;2022-09-09T12:45:41;2.00;;;0.80;;
29380;SDS011;16364;52.490;13.326;2022-09-09T12:48:07;1.20;;;0.77;;
29380;SDS011;16364;52.490;13.326;2022-09-09T12:50:37;3.00;;;0.90;;
29380;SDS011;16364;52.490;13.326;2022-09-09T12:53:21;2.03;;;0.83;;
29380;SDS011;16364;52.490;13.326;2022-09-09T12:56:06;1.70;;;0.90;;
29380;SDS011;16364;52.490;13.326;2022-09-09T12:58:33;3.77;;;0.80;;
29380;SDS011;16364;52.490;13.326;2022-09-09T13:00:58;1.33;;;1.00;;
29380;SDS011;16364;52.490;13.326;2022-09-09T13:03:25;2.00;;;0.80;;
29380;SDS011;16364;52.490;13.326;2022-09-09T13:05:50;1.90;;;1.00;;
29380;SDS011;16364;52.490;13.326;2022-09-09T13:08:16;3.07;;;1.00;;
29380;SDS011;16364;52.490;13.326;2022-09-09T13:13:23;1.63;;;0.90;;
29380;SDS011;16364;52.490;13.326;2022-09-09T13:15:51;1.33;;;0.77;;
29380;SDS011;16364;52.490;13.326;2022-09-09T13:18:17;1.77;;;0.93;;
29380;SDS011;16364;52.490;13.326;2022-09-09T13:20:48;1.87;;;0.93;;
29380;SDS011;16364;52.490;13.326;2022-09-09T13:23:13;1.83;;;0.80;;
29380;SDS011;16364;52.490;13.326;2022-09-09T13:25:39;1.10;;;0.90;;
29380;SDS011;16364;52.490;13.326;2022-09-09T13:28:05;1.83;;;1.20;;
29380;SDS011;16364;52.490;13.326;2022-09-09T13:30:36;1.37;;;0.87;;
29380;SDS011;16364;52.490;13.326;2022-09-09T13:35:45;2.83;;;1.07;;
29380;SDS011;16364;52.490;13.326;2022-09-09T13:38:13;1.47;;;0.90;;
29380;SDS011;16364;52.490;13.326;2022-09-09T13:40:39;0.90;;;0.70;;
29380;SDS011;16364;52.490;13.326;2022-09-09T13:43:04;2.03;;;1.03;;
29380;SDS011;16364;52.490;13.326;2022-09-09T13:45:30;1.20;;;0.80;;
29380;SDS011;16364;52.490;13.326;2022-09-09T13:47:55;2.63;;;0.90;;
29380;SDS011;16364;52.490;13.326;2022-09-09T13:50:27;3.20;;;2.00;;
29380;SDS011;16364;52.490;13.326;2022-09-09T13:52:53;1.77;;;1.50;;
29380;SDS011;16364;52.490;13.326;2022-09-09T13:55:20;1.87;;;1.17;;
29380;SDS011;16364;52.490;13.326;2022-09-09T14:00:24;2.23;;;1.00;;
29380;SDS011;16364;52.490;13.326;2022-09-09T14:02:49;1.57;;;1.10;;
29380;SDS011;16364;52.490;13.326;2022-09-09T14:05:16;2.97;;;1.47;;
29380;SDS011;16364;52.490;13.326;2022-09-09T14:07:42;1.50;;;0.90;;
29380;SDS011;16364;52.490;13.326;2022-09-09T14:10:07;2.13;;;1.30;;
29380;SDS011;16364;52.490;13.326;2022-09-09T14:12:33;4.93;;;1.20;;
29380;SDS011;16364;52.490;13.326;2022-09-09T14:14:58;2.60;;;0.90;;
29380;SDS011;16364;52.490;13.326;2022-09-09T14:17:24;2.00;;;0.90;;
29380;SDS011;16364;52.490;13.326;2022-09-09T14:19:52;1.87;;;0.80;;
29380;SDS011;16364;52.490;13.326;2022-09-09T14:22:17;1.20;;;0.90;;
29380;SDS011;16364;52.490;13.326;2022-09-09T14:24:42;1.73;;;0.80;;
29380;SDS011;16364;52.490;13.326;2022-09-09T14:27:08;1.03;;;0.80;;
29380;SDS011;16364;52.490;13.326;2022-09-09T14:29:33;2.03;;;0.70;;
29380;SDS011;16364;52.490;13.326;2022-09-09T14:31:58;3.43;;;1.13;;
29380;SDS011;16364;52.490;13.326;2022-09-09T14:34:25;2.13;;;0.90;;
29380;SDS011;16364;52.490;13.326;2022-09-09T14:36:51;1.47;;;1.00;;
29380;SDS011;16364;52.490;13.326;2022-09-09T14:39:16;2.13;;;1.00;;
29380;SDS011;16364;52.490;13.326;2022-09-09T14:41:42;1.70;;;0.80;;
29380;SDS011;16364;52.490;13.326;2022-09-09T14:44:10;1.90;;;1.30;;
29380;SDS011;16364;52.490;13.326;2022-09-09T14:46:35;2.23;;;1.20;;
29380;SDS011;16364;52.490;13.326;2022-09-09T14:49:03;1.47;;;1.00;;
29380;SDS011;16364;52.490;13.326;2022-09-09T14:51:29;1.40;;;1.10;;
29380;SDS011;16364;52.490;13.326;2022-09-09T14:53:55;1.93;;;0.90;;
29380;SDS011;16364;52.490;13.326;2022-09-09T14:56:22;2.17;;;0.90;;
29380;SDS011;16364;52.490;13.326;2022-09-09T14:58:48;1.90;;;1.17;;
29380;SDS011;16364;52.490;13.326;2022-09-09T15:01:14;1.70;;;0.93;;
29380;SDS011;16364;52.490;13.326;2022-09-09T15:03:41;1.23;;;1.00;;
29380;SDS011;16364;52.490;13.326;2022-09-09T15:06:13;1.20;;;1.00;;
29380;SDS011;16364;52.490;13.326;2022-09-09T15:08:39;3.70;;;1.30;;
29380;SDS011;16364;52.490;13.326;2022-09-09T15:11:05;2.20;;;1.10;;
29380;SDS011;16364;52.490;13.326;2022-09-09T15:13:32;2.53;;;0.90;;
29380;SDS011;16364;52.490;13.326;2022-09-09T15:16:03;2.30;;;0.90;;
29380;SDS011;16364;52.490;13.326;2022-09-09T15:18:28;1.30;;;0.80;;
29380;SDS011;16364;52.490;13.326;2022-09-09T15:20:54;1.47;;;0.90;;
29380;SDS011;16364;52.490;13.326;2022-09-09T15:23:19;1.90;;;0.90;;
29380;SDS011;16364;52.490;13.326;2022-09-09T15:25:51;0.97;;;0.80;;
29380;SDS011;16364;52.490;13.326;2022-09-09T15:28:17;1.60;;;0.90;;
29380;SDS011;16364;52.490;13.326;2022-09-09T15:30:42;1.13;;;0.80;;
29380;SDS011;16364;52.490;13.326;2022-09-09T15:33:09;1.23;;;1.10;;
29380;SDS011;16364;52.490;13.326;2022-09-09T15:35:35;3.60;;;1.10;;
29380;SDS011;16364;52.490;13.326;2022-09-09T15:38:01;1.90;;;1.00;;
29380;SDS011;16364;52.490;13.326;2022-09-09T15:40:27;2.13;;;1.00;;
29380;SDS011;16364;52.490;13.326;2022-09-09T15:42:52;1.60;;;1.00;;
29380;SDS011;16364;52.490;13.326;2022-09-09T15:45:17;2.40;;;1.70;;
29380;SDS011;16364;52.490;13.326;2022-09-09T15:47:43;4.20;;;2.63;;
29380;SDS011;16364;52.490;13.326;2022-09-09T15:50:08;4.20;;;3.80;;
29380;SDS011;16364;52.490;13.326;2022-09-09T15:52:33;3.50;;;2.00;;
29380;SDS011;16364;52.490;13.326;2022-09-09T15:54:58;2.07;;;1.40;;
29380;SDS011;16364;52.490;13.326;2022-09-09T15:57:25;1.23;;;0.90;;
29380;SDS011;16364;52.490;13.326;2022-09-09T15:59:51;1.10;;;0.90;;
29380;SDS011;16364;52.490;13.326;2022-09-09T16:02:16;1.30;;;1.07;;
29380;SDS011;16364;52.490;13.326;2022-09-09T16:04:42;2.13;;;0.80;;
29380;SDS011;16364;52.490;13.326;2022-09-09T16:07:07;2.00;;;0.80;;
29380;SDS011;16364;52.490;13.326;2022-09-09T16:09:32;5.13;;;1.60;;
29380;SDS011;16364;52.490;13.326;2022-09-09T16:11:59;1.70;;;1.00;;
29380;SDS011;16364;52.490;13.326;2022-09-09T16:14:26;1.63;;;1.17;;
29380;SDS011;16364;52.490;13.326;2022-09-09T16:16:51;0.87;;;0.83;;
29380;SDS011;16364;52.490;13.326;2022-09-09T16:19:17;0.93;;;0.83;;
29380;SDS011;16364;52.490;13.326;2022-09-09T16:21:43;2.00;;;1.10;;